sensor_id;sensor_type;location;lat;lon;timestamp;P1;durP1;ratioP1;P2;durP2;ratioP2
78732;SDS011;68056;52.530;5.454;2024-03-23T00:54:35;10.77;;;2.17;;
78732;SDS011;68056;52.530;5.454;2024-03-23T00:57:02;9.25;;;2.30;;
78732;SDS011;68056;52.530;5.454;2024-03-23T00:59:28;7.57;;;2.35;;
78732;SDS011;68056;52.530;5.454;2024-03-23T01:01:56;9.07;;;1.75;;
78732;SDS011;68056;52.530;5.454;2024-03-23T01:04:21;9.43;;;2.38;;
78732;SDS011;68056;52.530;5.454;2024-03-23T01:06:50;9.07;;;1.50;;
78732;SDS011;68056;52.530;5.454;2024-03-23T01:09:16;10.98;;;2.33;;
78732;SDS011;68056;52.530;5.454;2024-03-23T01:11:47;8.60;;;1.70;;
78732;SDS011;68056;52.530;5.454;2024-03-23T01:14:13;10.10;;;2.83;;
78732;SDS011;68056;52.530;5.454;2024-03-23T01:16:39;11.30;;;1.75;;
78732;SDS011;68056;52.530;5.454;2024-03-23T01:19:04;5.22;;;1.65;;
78732;SDS011;68056;52.530;5.454;2024-03-23T01:21:31;8.13;;;1.60;;
78732;SDS011;68056;52.530;5.454;2024-03-23T01:23:58;5.32;;;2.08;;
78732;SDS011;68056;52.530;5.454;2024-03-23T01:26:24;8.45;;;1.50;;
78732;SDS011;68056;52.530;5.454;2024-03-23T01:28:49;7.93;;;2.08;;
78732;SDS011;68056;52.530;5.454;2024-03-23T01:31:20;7.70;;;1.55;;
78732;SDS011;68056;52.530;5.454;2024-03-23T01:33:45;7.88;;;2.00;;
78732;SDS011;68056;52.530;5.454;2024-03-23T01:36:11;9.02;;;1.42;;
78732;SDS011;68056;52.530;5.454;2024-03-23T01:38:36;7.22;;;1.40;;
78732;SDS011;68056;52.530;5.454;2024-03-23T01:41:02;7.28;;;1.90;;
78732;SDS011;68056;52.530;5.454;2024-03-23T01:43:28;8.00;;;1.95;;
78732;SDS011;68056;52.530;5.454;2024-03-23T01:45:54;7.43;;;1.80;;
78732;SDS011;68056;52.530;5.454;2024-03-23T01:48:20;7.13;;;1.45;;
78732;SDS011;68056;52.530;5.454;2024-03-23T01:50:46;10.50;;;1.67;;
78732;SDS011;68056;52.530;5.454;2024-03-23T01:53:14;5.43;;;1.52;;
78732;SDS011;68056;52.530;5.454;2024-03-23T01:55:47;14.27;;;1.52;;
78732;SDS011;68056;52.530;5.454;2024-03-23T01:58:23;7.25;;;1.20;;
78732;SDS011;68056;52.530;5.454;2024-03-23T02:00:49;6.97;;;1.45;;
78732;SDS011;68056;52.530;5.454;2024-03-23T02:03:21;6.15;;;1.15;;
78732;SDS011;68056;52.530;5.454;2024-03-23T02:05:51;4.93;;;1.35;;
78732;SDS011;68056;52.530;5.454;2024-03-23T02:08:20;8.20;;;1.67;;
78732;SDS011;68056;52.530;5.454;2024-03-23T02:10:47;5.55;;;1.58;;
78732;SDS011;68056;52.530;5.454;2024-03-23T02:13:14;7.28;;;1.10;;
78732;SDS011;68056;52.530;5.454;2024-03-23T02:15:41;6.90;;;1.75;;
78732;SDS011;68056;52.530;5.454;2024-03-23T02:18:07;5.72;;;1.30;;
78732;SDS011;68056;52.530;5.454;2024-03-23T02:20:33;6.13;;;1.38;;
78732;SDS011;68056;52.530;5.454;2024-03-23T02:23:03;4.50;;;1.10;;
78732;SDS011;68056;52.530;5.454;2024-03-23T02:25:31;4.95;;;1.52;;
78732;SDS011;68056;52.530;5.454;2024-03-23T02:28:00;2.15;;;0.70;;
78732;SDS011;68056;52.530;5.454;2024-03-23T02:30:26;6.63;;;1.25;;
78732;SDS011;68056;52.530;5.454;2024-03-23T02:32:51;6.75;;;1.23;;
78732;SDS011;68056;52.530;5.454;2024-03-23T02:35:18;5.40;;;1.20;;
78732;SDS011;68056;52.530;5.454;2024-03-23T02:37:48;5.95;;;1.42;;
78732;SDS011;68056;52.530;5.454;2024-03-23T02:40:14;3.15;;;1.17;;
78732;SDS011;68056;52.530;5.454;2024-03-23T02:42:40;3.92;;;1.10;;
78732;SDS011;68056;52.530;5.454;2024-03-23T02:45:15;6.35;;;1.67;;
78732;SDS011;68056;52.530;5.454;2024-03-23T02:47:42;7.72;;;1.75;;
78732;SDS011;68056;52.530;5.454;2024-03-23T02:50:10;9.30;;;2.08;;
78732;SDS011;68056;52.530;5.454;2024-03-23T02:52:36;4.07;;;0.88;;
78732;SDS011;68056;52.530;5.454;2024-03-23T02:55:02;6.75;;;1.02;;
78732;SDS011;68056;52.530;5.454;2024-03-23T02:57:29;7.53;;;1.20;;
78732;SDS011;68056;52.530;5.454;2024-03-23T02:59:58;3.53;;;1.20;;
78732;SDS011;68056;52.530;5.454;2024-03-23T03:02:25;6.03;;;0.98;;
78732;SDS011;68056;52.530;5.454;2024-03-23T03:04:51;8.18;;;1.30;;
78732;SDS011;68056;52.530;5.454;2024-03-23T03:07:17;7.30;;;1.75;;
78732;SDS011;68056;52.530;5.454;2024-03-23T03:09:48;5.07;;;1.25;;
78732;SDS011;68056;52.530;5.454;2024-03-23T03:12:14;3.75;;;1.08;;
78732;SDS011;68056;52.530;5.454;2024-03-23T03:14:41;6.60;;;0.80;;
78732;SDS011;68056;52.530;5.454;2024-03-23T03:17:07;4.75;;;1.00;;
78732;SDS011;68056;52.530;5.454;2024-03-23T03:19:35;3.92;;;1.17;;
78732;SDS011;68056;52.530;5.454;2024-03-23T03:22:07;5.88;;;1.55;;
78732;SDS011;68056;52.530;5.454;2024-03-23T03:24:32;5.80;;;0.95;;
78732;SDS011;68056;52.530;5.454;2024-03-23T03:26:58;5.22;;;1.25;;
78732;SDS011;68056;52.530;5.454;2024-03-23T03:29:25;3.65;;;1.13;;
78732;SDS011;68056;52.530;5.454;2024-03-23T03:31:59;7.00;;;1.60;;
78732;SDS011;68056;52.530;5.454;2024-03-23T03:34:26;3.92;;;0.75;;
78732;SDS011;68056;52.530;5.454;2024-03-23T03:36:52;5.55;;;1.23;;
78732;SDS011;68056;52.530;5.454;2024-03-23T03:39:18;6.78;;;1.00;;
78732;SDS011;68056;52.530;5.454;2024-03-23T03:41:44;3.67;;;0.80;;
78732;SDS011;68056;52.530;5.454;2024-03-23T03:44:10;2.42;;;0.73;;
78732;SDS011;68056;52.530;5.454;2024-03-23T03:46:48;4.90;;;0.93;;
78732;SDS011;68056;52.530;5.454;2024-03-23T03:49:14;3.35;;;0.85;;
78732;SDS011;68056;52.530;5.454;2024-03-23T03:51:42;3.22;;;1.10;;
78732;SDS011;68056;52.530;5.454;2024-03-23T03:54:08;4.70;;;1.10;;
78732;SDS011;68056;52.530;5.454;2024-03-23T03:56:35;7.07;;;0.98;;
78732;SDS011;68056;52.530;5.454;2024-03-23T03:59:01;3.65;;;1.20;;
78732;SDS011;68056;52.530;5.454;2024-03-23T04:01:27;8.55;;;1.25;;
78732;SDS011;68056;52.530;5.454;2024-03-23T04:03:54;7.82;;;1.00;;
78732;SDS011;68056;52.530;5.454;2024-03-23T04:06:20;4.13;;;1.27;;
78732;SDS011;68056;52.530;5.454;2024-03-23T04:08:46;3.92;;;0.93;;
78732;SDS011;68056;52.530;5.454;2024-03-23T04:11:14;4.15;;;0.77;;
78732;SDS011;68056;52.530;5.454;2024-03-23T04:13:43;3.78;;;1.10;;
78732;SDS011;68056;52.530;5.454;2024-03-23T04:16:09;2.75;;;1.08;;
78732;SDS011;68056;52.530;5.454;2024-03-23T04:18:36;4.28;;;1.13;;
78732;SDS011;68056;52.530;5.454;2024-03-23T04:21:02;3.47;;;0.80;;
78732;SDS011;68056;52.530;5.454;2024-03-23T04:23:29;5.72;;;0.80;;
78732;SDS011;68056;52.530;5.454;2024-03-23T04:25:55;1.85;;;0.73;;
78732;SDS011;68056;52.530;5.454;2024-03-23T04:28:21;4.82;;;1.00;;
78732;SDS011;68056;52.530;5.454;2024-03-23T04:30:47;6.57;;;0.95;;
78732;SDS011;68056;52.530;5.454;2024-03-23T04:33:13;1.75;;;0.70;;
78732;SDS011;68056;52.530;5.454;2024-03-23T04:35:39;3.42;;;0.82;;
78732;SDS011;68056;52.530;5.454;2024-03-23T04:38:04;2.55;;;1.00;;
78732;SDS011;68056;52.530;5.454;2024-03-23T04:40:32;5.35;;;0.75;;
78732;SDS011;68056;52.530;5.454;2024-03-23T04:43:00;2.78;;;1.00;;
78732;SDS011;68056;52.530;5.454;2024-03-23T04:45:33;2.72;;;0.93;;
78732;SDS011;68056;52.530;5.454;2024-03-23T04:48:15;7.47;;;0.90;;
78732;SDS011;68056;52.530;5.454;2024-03-23T04:50:48;10.40;;;1.17;;
78732;SDS011;68056;52.530;5.454;2024-03-23T04:53:20;7.47;;;1.30;;
78732;SDS011;68056;52.530;5.454;2024-03-23T04:55:55;5.25;;;0.90;;
78732;SDS011;68056;52.530;5.454;2024-03-23T04:58:22;3.05;;;0.90;;
78732;SDS011;68056;52.530;5.454;2024-03-23T05:00:55;5.38;;;1.13;;
78732;SDS011;68056;52.530;5.454;2024-03-23T05:03:21;7.70;;;1.30;;
78732;SDS011;68056;52.530;5.454;2024-03-23T05:05:48;6.70;;;1.10;;
78732;SDS011;68056;52.530;5.454;2024-03-23T05:08:14;5.38;;;1.02;;
78732;SDS011;68056;52.530;5.454;2024-03-23T05:10:50;6.30;;;0.80;;
78732;SDS011;68056;52.530;5.454;2024-03-23T05:13:16;7.45;;;1.45;;
78732;SDS011;68056;52.530;5.454;2024-03-23T05:15:42;3.13;;;0.98;;
78732;SDS011;68056;52.530;5.454;2024-03-23T05:18:08;6.97;;;1.05;;
78732;SDS011;68056;52.530;5.454;2024-03-23T05:23:07;3.03;;;1.00;;
78732;SDS011;68056;52.530;5.454;2024-03-23T05:25:34;6.93;;;1.27;;
78732;SDS011;68056;52.530;5.454;2024-03-23T05:28:00;7.35;;;1.38;;
78732;SDS011;68056;52.530;5.454;2024-03-23T05:30:27;7.00;;;1.00;;
78732;SDS011;68056;52.530;5.454;2024-03-23T05:32:54;6.03;;;1.30;;
78732;SDS011;68056;52.530;5.454;2024-03-23T05:35:23;6.60;;;1.10;;
78732;SDS011;68056;52.530;5.454;2024-03-23T05:37:50;6.60;;;1.02;;
78732;SDS011;68056;52.530;5.454;2024-03-23T05:40:25;6.03;;;1.60;;
78732;SDS011;68056;52.530;5.454;2024-03-23T05:42:52;6.90;;;1.85;;
78732;SDS011;68056;52.530;5.454;2024-03-23T05:45:19;4.75;;;0.90;;
78732;SDS011;68056;52.530;5.454;2024-03-23T05:47:50;3.33;;;0.98;;
78732;SDS011;68056;52.530;5.454;2024-03-23T05:50:17;5.50;;;1.33;;
78732;SDS011;68056;52.530;5.454;2024-03-23T05:52:43;5.07;;;1.00;;
78732;SDS011;68056;52.530;5.454;2024-03-23T05:55:10;8.52;;;1.20;;
78732;SDS011;68056;52.530;5.454;2024-03-23T05:57:35;3.53;;;0.88;;
78732;SDS011;68056;52.530;5.454;2024-03-23T06:00:02;4.30;;;1.27;;
78732;SDS011;68056;52.530;5.454;2024-03-23T06:02:29;8.27;;;1.77;;
78732;SDS011;68056;52.530;5.454;2024-03-23T06:05:10;6.57;;;1.08;;
78732;SDS011;68056;52.530;5.454;2024-03-23T06:07:37;3.47;;;1.08;;
78732;SDS011;68056;52.530;5.454;2024-03-23T06:10:12;5.03;;;1.20;;
78732;SDS011;68056;52.530;5.454;2024-03-23T06:12:47;4.07;;;1.38;;
78732;SDS011;68056;52.530;5.454;2024-03-23T06:15:14;3.90;;;0.90;;
78732;SDS011;68056;52.530;5.454;2024-03-23T06:17:40;5.70;;;1.20;;
78732;SDS011;68056;52.530;5.454;2024-03-23T06:20:07;4.57;;;1.63;;
78732;SDS011;68056;52.530;5.454;2024-03-23T06:22:40;4.40;;;1.30;;
78732;SDS011;68056;52.530;5.454;2024-03-23T06:25:11;3.47;;;1.27;;
78732;SDS011;68056;52.530;5.454;2024-03-23T06:27:46;7.70;;;1.33;;
78732;SDS011;68056;52.530;5.454;2024-03-23T06:30:12;5.82;;;1.48;;
78732;SDS011;68056;52.530;5.454;2024-03-23T06:32:38;5.72;;;1.20;;
78732;SDS011;68056;52.530;5.454;2024-03-23T06:35:07;5.05;;;1.02;;
78732;SDS011;68056;52.530;5.454;2024-03-23T06:37:37;7.68;;;1.40;;
78732;SDS011;68056;52.530;5.454;2024-03-23T06:40:04;8.25;;;1.40;;
78732;SDS011;68056;52.530;5.454;2024-03-23T06:42:35;5.82;;;1.25;;
78732;SDS011;68056;52.530;5.454;2024-03-23T06:45:01;8.32;;;1.17;;
78732;SDS011;68056;52.530;5.454;2024-03-23T06:47:29;6.00;;;1.23;;
78732;SDS011;68056;52.530;5.454;2024-03-23T06:50:07;5.45;;;1.67;;
78732;SDS011;68056;52.530;5.454;2024-03-23T06:55:06;6.00;;;1.83;;
78732;SDS011;68056;52.530;5.454;2024-03-23T06:57:33;6.45;;;1.50;;
78732;SDS011;68056;52.530;5.454;2024-03-23T07:00:00;4.35;;;1.30;;
78732;SDS011;68056;52.530;5.454;2024-03-23T07:02:28;3.60;;;1.48;;
78732;SDS011;68056;52.530;5.454;2024-03-23T07:05:17;4.15;;;1.40;;
78732;SDS011;68056;52.530;5.454;2024-03-23T07:07:55;8.55;;;1.50;;
78732;SDS011;68056;52.530;5.454;2024-03-23T07:10:39;9.52;;;1.50;;
78732;SDS011;68056;52.530;5.454;2024-03-23T07:13:05;2.72;;;1.30;;
78732;SDS011;68056;52.530;5.454;2024-03-23T07:15:32;4.07;;;1.00;;
78732;SDS011;68056;52.530;5.454;2024-03-23T07:17:59;4.72;;;1.00;;
78732;SDS011;68056;52.530;5.454;2024-03-23T07:20:25;3.25;;;1.25;;
78732;SDS011;68056;52.530;5.454;2024-03-23T07:22:52;3.50;;;1.17;;
78732;SDS011;68056;52.530;5.454;2024-03-23T07:25:17;5.60;;;1.00;;
78732;SDS011;68056;52.530;5.454;2024-03-23T07:27:47;3.72;;;1.02;;
78732;SDS011;68056;52.530;5.454;2024-03-23T07:30:13;6.22;;;1.73;;
78732;SDS011;68056;52.530;5.454;2024-03-23T07:32:39;8.40;;;1.70;;
78732;SDS011;68056;52.530;5.454;2024-03-23T07:35:05;1.48;;;0.40;;
78732;SDS011;68056;52.530;5.454;2024-03-23T07:37:31;2.42;;;0.32;;
78732;SDS011;68056;52.530;5.454;2024-03-23T07:39:56;2.17;;;0.50;;
78732;SDS011;68056;52.530;5.454;2024-03-23T07:42:22;3.30;;;0.75;;
78732;SDS011;68056;52.530;5.454;2024-03-23T07:44:48;1.52;;;0.22;;
78732;SDS011;68056;52.530;5.454;2024-03-23T07:47:14;4.60;;;1.05;;
78732;SDS011;68056;52.530;5.454;2024-03-23T07:49:40;3.85;;;1.20;;
78732;SDS011;68056;52.530;5.454;2024-03-23T07:52:05;1.73;;;0.55;;
78732;SDS011;68056;52.530;5.454;2024-03-23T07:54:31;5.20;;;1.08;;
78732;SDS011;68056;52.530;5.454;2024-03-23T07:56:57;6.88;;;1.00;;
78732;SDS011;68056;52.530;5.454;2024-03-23T07:59:22;5.63;;;0.80;;
78732;SDS011;68056;52.530;5.454;2024-03-23T08:01:48;1.98;;;0.60;;
78732;SDS011;68056;52.530;5.454;2024-03-23T08:04:13;5.15;;;0.75;;
78732;SDS011;68056;52.530;5.454;2024-03-23T08:06:39;4.60;;;1.25;;
78732;SDS011;68056;52.530;5.454;2024-03-23T08:09:04;5.47;;;1.25;;
78732;SDS011;68056;52.530;5.454;2024-03-23T08:11:31;5.97;;;1.42;;
78732;SDS011;68056;52.530;5.454;2024-03-23T08:13:58;4.82;;;1.27;;
78732;SDS011;68056;52.530;5.454;2024-03-23T08:16:23;7.28;;;1.40;;
78732;SDS011;68056;52.530;5.454;2024-03-23T08:18:52;4.25;;;1.20;;
78732;SDS011;68056;52.530;5.454;2024-03-23T08:21:18;3.42;;;1.20;;
78732;SDS011;68056;52.530;5.454;2024-03-23T08:23:44;4.43;;;1.23;;
78732;SDS011;68056;52.530;5.454;2024-03-23T08:26:10;5.97;;;1.02;;
78732;SDS011;68056;52.530;5.454;2024-03-23T08:28:37;6.90;;;2.13;;
78732;SDS011;68056;52.530;5.454;2024-03-23T08:31:10;6.90;;;1.42;;
78732;SDS011;68056;52.530;5.454;2024-03-23T08:33:36;4.57;;;1.27;;
78732;SDS011;68056;52.530;5.454;2024-03-23T08:38:55;7.20;;;1.17;;
78732;SDS011;68056;52.530;5.454;2024-03-23T08:41:21;5.55;;;1.33;;
78732;SDS011;68056;52.530;5.454;2024-03-23T08:43:46;4.32;;;1.20;;
78732;SDS011;68056;52.530;5.454;2024-03-23T08:46:13;5.78;;;1.63;;
78732;SDS011;68056;52.530;5.454;2024-03-23T08:48:41;5.95;;;1.20;;
78732;SDS011;68056;52.530;5.454;2024-03-23T08:51:24;8.70;;;1.30;;
78732;SDS011;68056;52.530;5.454;2024-03-23T08:54:01;2.88;;;1.10;;
78732;SDS011;68056;52.530;5.454;2024-03-23T08:56:27;5.80;;;1.40;;
78732;SDS011;68056;52.530;5.454;2024-03-23T08:58:53;4.07;;;0.88;;
78732;SDS011;68056;52.530;5.454;2024-03-23T09:01:19;3.80;;;0.90;;
78732;SDS011;68056;52.530;5.454;2024-03-23T09:03:44;5.47;;;1.02;;
78732;SDS011;68056;52.530;5.454;2024-03-23T09:06:11;4.78;;;0.93;;
78732;SDS011;68056;52.530;5.454;2024-03-23T09:08:46;4.93;;;1.00;;
78732;SDS011;68056;52.530;5.454;2024-03-23T09:11:13;4.90;;;0.82;;
78732;SDS011;68056;52.530;5.454;2024-03-23T09:13:39;5.80;;;1.17;;
78732;SDS011;68056;52.530;5.454;2024-03-23T09:18:53;5.18;;;1.20;;
78732;SDS011;68056;52.530;5.454;2024-03-23T09:21:19;3.05;;;0.88;;
78732;SDS011;68056;52.530;5.454;2024-03-23T09:23:45;3.08;;;0.75;;
78732;SDS011;68056;52.530;5.454;2024-03-23T09:26:20;4.90;;;1.05;;
78732;SDS011;68056;52.530;5.454;2024-03-23T09:28:49;2.50;;;0.73;;
78732;SDS011;68056;52.530;5.454;2024-03-23T09:31:17;5.65;;;1.40;;
78732;SDS011;68056;52.530;5.454;2024-03-23T09:33:43;3.92;;;1.13;;
78732;SDS011;68056;52.530;5.454;2024-03-23T09:36:09;5.15;;;1.05;;
78732;SDS011;68056;52.530;5.454;2024-03-23T09:38:43;5.20;;;1.38;;
78732;SDS011;68056;52.530;5.454;2024-03-23T09:41:09;3.20;;;0.95;;
78732;SDS011;68056;52.530;5.454;2024-03-23T09:43:41;6.05;;;1.27;;
78732;SDS011;68056;52.530;5.454;2024-03-23T09:46:07;7.45;;;1.45;;
78732;SDS011;68056;52.530;5.454;2024-03-23T09:48:33;5.10;;;1.05;;
78732;SDS011;68056;52.530;5.454;2024-03-23T09:50:59;3.72;;;0.95;;
78732;SDS011;68056;52.530;5.454;2024-03-23T09:53:25;3.03;;;1.42;;
78732;SDS011;68056;52.530;5.454;2024-03-23T09:55:51;3.33;;;1.10;;
78732;SDS011;68056;52.530;5.454;2024-03-23T09:58:18;7.45;;;1.38;;
78732;SDS011;68056;52.530;5.454;2024-03-23T10:00:44;5.82;;;1.48;;
78732;SDS011;68056;52.530;5.454;2024-03-23T10:03:10;5.30;;;1.50;;
78732;SDS011;68056;52.530;5.454;2024-03-23T10:05:36;2.25;;;1.08;;
78732;SDS011;68056;52.530;5.454;2024-03-23T10:08:17;8.23;;;1.25;;
78732;SDS011;68056;52.530;5.454;2024-03-23T10:10:44;4.25;;;0.93;;
78732;SDS011;68056;52.530;5.454;2024-03-23T10:13:11;2.47;;;0.88;;
78732;SDS011;68056;52.530;5.454;2024-03-23T10:15:48;5.30;;;0.80;;
78732;SDS011;68056;52.530;5.454;2024-03-23T10:18:23;7.53;;;1.20;;
78732;SDS011;68056;52.530;5.454;2024-03-23T10:23:31;8.40;;;1.58;;
78732;SDS011;68056;52.530;5.454;2024-03-23T10:26:12;5.18;;;1.17;;
78732;SDS011;68056;52.530;5.454;2024-03-23T10:31:27;4.40;;;1.10;;
78732;SDS011;68056;52.530;5.454;2024-03-23T10:33:53;7.65;;;1.63;;
78732;SDS011;68056;52.530;5.454;2024-03-23T10:36:20;6.53;;;1.98;;
78732;SDS011;68056;52.530;5.454;2024-03-23T10:38:47;7.03;;;1.38;;
78732;SDS011;68056;52.530;5.454;2024-03-23T10:41:14;9.15;;;1.35;;
78732;SDS011;68056;52.530;5.454;2024-03-23T10:43:41;6.20;;;1.20;;
78732;SDS011;68056;52.530;5.454;2024-03-23T10:46:09;5.35;;;1.50;;
78732;SDS011;68056;52.530;5.454;2024-03-23T10:48:36;10.10;;;1.00;;
78732;SDS011;68056;52.530;5.454;2024-03-23T10:51:03;2.92;;;0.68;;
78732;SDS011;68056;52.530;5.454;2024-03-23T10:53:31;5.10;;;1.00;;
78732;SDS011;68056;52.530;5.454;2024-03-23T10:55:58;3.58;;;0.82;;
78732;SDS011;68056;52.530;5.454;2024-03-23T10:58:46;4.40;;;0.80;;
78732;SDS011;68056;52.530;5.454;2024-03-23T11:01:13;6.35;;;1.10;;
78732;SDS011;68056;52.530;5.454;2024-03-23T11:03:39;7.13;;;1.20;;
78732;SDS011;68056;52.530;5.454;2024-03-23T11:06:09;6.57;;;1.10;;
78732;SDS011;68056;52.530;5.454;2024-03-23T11:08:38;3.10;;;1.45;;
78732;SDS011;68056;52.530;5.454;2024-03-23T11:11:12;2.78;;;0.90;;
78732;SDS011;68056;52.530;5.454;2024-03-23T11:13:48;3.55;;;0.77;;
78732;SDS011;68056;52.530;5.454;2024-03-23T11:16:15;6.53;;;1.27;;
78732;SDS011;68056;52.530;5.454;2024-03-23T11:18:41;4.10;;;1.10;;
78732;SDS011;68056;52.530;5.454;2024-03-23T11:21:07;5.95;;;1.25;;
78732;SDS011;68056;52.530;5.454;2024-03-23T11:23:33;3.53;;;1.50;;
78732;SDS011;68056;52.530;5.454;2024-03-23T11:25:58;6.43;;;1.40;;
78732;SDS011;68056;52.530;5.454;2024-03-23T11:28:24;5.07;;;1.50;;
78732;SDS011;68056;52.530;5.454;2024-03-23T11:30:50;2.65;;;0.93;;
78732;SDS011;68056;52.530;5.454;2024-03-23T11:33:15;5.15;;;1.00;;
78732;SDS011;68056;52.530;5.454;2024-03-23T11:35:41;4.53;;;0.73;;
78732;SDS011;68056;52.530;5.454;2024-03-23T11:38:07;4.40;;;1.20;;
78732;SDS011;68056;52.530;5.454;2024-03-23T11:40:34;4.35;;;0.90;;
78732;SDS011;68056;52.530;5.454;2024-03-23T11:43:01;3.53;;;0.77;;
78732;SDS011;68056;52.530;5.454;2024-03-23T11:45:39;3.92;;;0.93;;
78732;SDS011;68056;52.530;5.454;2024-03-23T11:48:18;4.82;;;1.42;;
78732;SDS011;68056;52.530;5.454;2024-03-23T11:50:46;6.60;;;1.58;;
78732;SDS011;68056;52.530;5.454;2024-03-23T11:53:13;6.13;;;1.55;;
78732;SDS011;68056;52.530;5.454;2024-03-23T11:55:58;5.30;;;1.10;;
78732;SDS011;68056;52.530;5.454;2024-03-23T11:58:26;3.88;;;0.80;;
78732;SDS011;68056;52.530;5.454;2024-03-23T12:03:25;2.95;;;0.63;;
78732;SDS011;68056;52.530;5.454;2024-03-23T12:05:53;4.85;;;0.90;;
78732;SDS011;68056;52.530;5.454;2024-03-23T12:08:29;2.90;;;0.80;;
78732;SDS011;68056;52.530;5.454;2024-03-23T12:11:11;1.05;;;0.30;;
78732;SDS011;68056;52.530;5.454;2024-03-23T12:13:39;3.17;;;0.70;;
78732;SDS011;68056;52.530;5.454;2024-03-23T12:18:46;3.42;;;0.60;;
78732;SDS011;68056;52.530;5.454;2024-03-23T12:21:14;7.00;;;1.10;;
78732;SDS011;68056;52.530;5.454;2024-03-23T12:23:40;4.28;;;1.10;;
78732;SDS011;68056;52.530;5.454;2024-03-23T12:26:06;7.28;;;1.10;;
78732;SDS011;68056;52.530;5.454;2024-03-23T12:28:32;7.00;;;1.15;;
78732;SDS011;68056;52.530;5.454;2024-03-23T12:30:58;3.13;;;0.90;;
78732;SDS011;68056;52.530;5.454;2024-03-23T12:33:24;5.15;;;1.20;;
78732;SDS011;68056;52.530;5.454;2024-03-23T12:35:50;5.93;;;1.45;;
78732;SDS011;68056;52.530;5.454;2024-03-23T12:38:16;2.03;;;0.73;;
78732;SDS011;68056;52.530;5.454;2024-03-23T12:40:45;4.03;;;0.90;;
78732;SDS011;68056;52.530;5.454;2024-03-23T12:43:13;2.30;;;0.68;;
78732;SDS011;68056;52.530;5.454;2024-03-23T12:45:38;1.50;;;0.50;;
78732;SDS011;68056;52.530;5.454;2024-03-23T12:48:04;2.58;;;0.40;;
78732;SDS011;68056;52.530;5.454;2024-03-23T12:50:30;4.43;;;1.10;;
78732;SDS011;68056;52.530;5.454;2024-03-23T12:52:55;7.25;;;0.80;;
78732;SDS011;68056;52.530;5.454;2024-03-23T12:55:21;3.38;;;0.80;;
78732;SDS011;68056;52.530;5.454;2024-03-23T12:57:47;3.72;;;0.88;;
78732;SDS011;68056;52.530;5.454;2024-03-23T13:00:12;5.53;;;1.13;;
78732;SDS011;68056;52.530;5.454;2024-03-23T13:02:40;3.85;;;0.85;;
78732;SDS011;68056;52.530;5.454;2024-03-23T13:05:07;5.75;;;1.40;;
78732;SDS011;68056;52.530;5.454;2024-03-23T13:07:34;5.50;;;1.27;;
78732;SDS011;68056;52.530;5.454;2024-03-23T13:10:00;9.30;;;1.48;;
78732;SDS011;68056;52.530;5.454;2024-03-23T13:12:27;4.35;;;1.13;;
78732;SDS011;68056;52.530;5.454;2024-03-23T13:14:52;5.32;;;1.42;;
78732;SDS011;68056;52.530;5.454;2024-03-23T13:17:18;7.60;;;1.40;;
78732;SDS011;68056;52.530;5.454;2024-03-23T13:19:43;7.70;;;1.85;;
78732;SDS011;68056;52.530;5.454;2024-03-23T13:22:09;5.63;;;0.95;;
78732;SDS011;68056;52.530;5.454;2024-03-23T13:24:37;2.60;;;0.82;;
78732;SDS011;68056;52.530;5.454;2024-03-23T13:27:03;4.65;;;0.80;;
78732;SDS011;68056;52.530;5.454;2024-03-23T13:29:32;2.88;;;0.65;;
78732;SDS011;68056;52.530;5.454;2024-03-23T13:31:59;3.30;;;0.70;;
78732;SDS011;68056;52.530;5.454;2024-03-23T13:34:25;5.97;;;1.35;;
78732;SDS011;68056;52.530;5.454;2024-03-23T13:36:50;5.13;;;0.98;;
78732;SDS011;68056;52.530;5.454;2024-03-23T13:39:16;3.88;;;0.82;;
78732;SDS011;68056;52.530;5.454;2024-03-23T13:41:43;6.15;;;0.90;;
78732;SDS011;68056;52.530;5.454;2024-03-23T13:44:10;4.70;;;1.00;;
78732;SDS011;68056;52.530;5.454;2024-03-23T13:46:37;3.25;;;1.00;;
78732;SDS011;68056;52.530;5.454;2024-03-23T13:51:52;5.40;;;1.40;;
78732;SDS011;68056;52.530;5.454;2024-03-23T13:54:18;2.78;;;0.85;;
78732;SDS011;68056;52.530;5.454;2024-03-23T13:56:44;3.63;;;0.70;;
78732;SDS011;68056;52.530;5.454;2024-03-23T13:59:10;2.42;;;0.90;;
78732;SDS011;68056;52.530;5.454;2024-03-23T14:01:37;2.65;;;0.82;;
78732;SDS011;68056;52.530;5.454;2024-03-23T14:04:02;2.15;;;0.60;;
78732;SDS011;68056;52.530;5.454;2024-03-23T14:06:28;3.53;;;1.30;;
78732;SDS011;68056;52.530;5.454;2024-03-23T14:08:54;1.73;;;0.65;;
78732;SDS011;68056;52.530;5.454;2024-03-23T14:11:19;6.32;;;1.10;;
78732;SDS011;68056;52.530;5.454;2024-03-23T14:13:45;3.15;;;0.75;;
78732;SDS011;68056;52.530;5.454;2024-03-23T14:16:10;4.57;;;0.82;;
78732;SDS011;68056;52.530;5.454;2024-03-23T14:18:36;3.08;;;0.70;;
78732;SDS011;68056;52.530;5.454;2024-03-23T14:21:01;2.65;;;0.60;;
78732;SDS011;68056;52.530;5.454;2024-03-23T14:23:28;5.07;;;0.90;;
78732;SDS011;68056;52.530;5.454;2024-03-23T14:25:58;6.68;;;1.13;;
78732;SDS011;68056;52.530;5.454;2024-03-23T14:28:24;2.65;;;1.05;;
78732;SDS011;68056;52.530;5.454;2024-03-23T14:30:55;3.20;;;0.75;;
78732;SDS011;68056;52.530;5.454;2024-03-23T14:33:21;4.70;;;0.93;;
78732;SDS011;68056;52.530;5.454;2024-03-23T14:35:56;6.57;;;0.93;;
78732;SDS011;68056;52.530;5.454;2024-03-23T14:38:22;2.10;;;0.75;;
78732;SDS011;68056;52.530;5.454;2024-03-23T14:40:48;1.75;;;0.50;;
78732;SDS011;68056;52.530;5.454;2024-03-23T14:43:14;1.58;;;0.50;;
78732;SDS011;68056;52.530;5.454;2024-03-23T14:48:35;1.67;;;0.30;;
78732;SDS011;68056;52.530;5.454;2024-03-23T14:51:01;2.90;;;0.50;;
78732;SDS011;68056;52.530;5.454;2024-03-23T14:53:31;2.30;;;0.47;;
78732;SDS011;68056;52.530;5.454;2024-03-23T14:55:58;3.03;;;0.50;;
78732;SDS011;68056;52.530;5.454;2024-03-23T14:58:25;2.83;;;0.50;;
78732;SDS011;68056;52.530;5.454;2024-03-23T15:00:51;2.13;;;0.80;;
78732;SDS011;68056;52.530;5.454;2024-03-23T15:03:18;4.20;;;1.15;;
78732;SDS011;68056;52.530;5.454;2024-03-23T15:05:57;3.80;;;0.75;;
78732;SDS011;68056;52.530;5.454;2024-03-23T15:08:25;2.13;;;0.77;;
78732;SDS011;68056;52.530;5.454;2024-03-23T15:10:51;1.95;;;0.50;;
78732;SDS011;68056;52.530;5.454;2024-03-23T15:13:17;3.17;;;0.50;;
78732;SDS011;68056;52.530;5.454;2024-03-23T15:15:43;2.00;;;0.60;;
78732;SDS011;68056;52.530;5.454;2024-03-23T15:18:13;1.38;;;0.22;;
78732;SDS011;68056;52.530;5.454;2024-03-23T15:20:51;1.75;;;0.40;;
78732;SDS011;68056;52.530;5.454;2024-03-23T15:23:20;2.55;;;0.52;;
78732;SDS011;68056;52.530;5.454;2024-03-23T15:25:58;1.50;;;0.50;;
78732;SDS011;68056;52.530;5.454;2024-03-23T15:28:25;3.25;;;0.63;;
78732;SDS011;68056;52.530;5.454;2024-03-23T15:31:07;3.00;;;0.82;;
78732;SDS011;68056;52.530;5.454;2024-03-23T15:33:36;4.05;;;0.77;;
78732;SDS011;68056;52.530;5.454;2024-03-23T15:36:02;4.07;;;0.98;;
78732;SDS011;68056;52.530;5.454;2024-03-23T15:38:28;8.55;;;0.82;;
78732;SDS011;68056;52.530;5.454;2024-03-23T15:43:21;5.32;;;1.30;;
78732;SDS011;68056;52.530;5.454;2024-03-23T15:45:56;3.55;;;0.90;;
78732;SDS011;68056;52.530;5.454;2024-03-23T15:48:24;3.45;;;0.82;;
78732;SDS011;68056;52.530;5.454;2024-03-23T15:53:18;2.92;;;0.90;;
78732;SDS011;68056;52.530;5.454;2024-03-23T15:56:04;2.17;;;0.68;;
78732;SDS011;68056;52.530;5.454;2024-03-23T15:58:30;4.05;;;1.25;;
78732;SDS011;68056;52.530;5.454;2024-03-23T16:03:24;3.03;;;0.77;;
78732;SDS011;68056;52.530;5.454;2024-03-23T16:05:52;2.42;;;0.70;;
78732;SDS011;68056;52.530;5.454;2024-03-23T16:08:18;2.55;;;0.63;;
78732;SDS011;68056;52.530;5.454;2024-03-23T16:10:44;1.50;;;0.65;;
78732;SDS011;68056;52.530;5.454;2024-03-23T16:13:10;4.90;;;1.00;;
78732;SDS011;68056;52.530;5.454;2024-03-23T16:15:35;6.07;;;1.10;;
78732;SDS011;68056;52.530;5.454;2024-03-23T16:18:01;3.10;;;0.70;;
78732;SDS011;68056;52.530;5.454;2024-03-23T16:20:26;3.85;;;0.57;;